sensor_id;sensor_type;location;lat;lon;timestamp;P1;durP1;ratioP1;P2;durP2;ratioP2
75851;SDS011;64500;52.632;20.656;2023-04-25T00:02:04;34.90;;;24.40;;
75851;SDS011;64500;52.632;20.656;2023-04-25T00:04:31;38.60;;;26.30;;
75851;SDS011;64500;52.632;20.656;2023-04-25T00:07:00;34.90;;;26.00;;
75851;SDS011;64500;52.632;20.656;2023-04-25T00:09:30;33.80;;;26.10;;
75851;SDS011;64500;52.632;20.656;2023-04-25T00:11:59;37.30;;;26.50;;
75851;SDS011;64500;52.632;20.656;2023-04-25T00:14:28;34.80;;;26.90;;
75851;SDS011;64500;52.632;20.656;2023-04-25T00:16:56;38.30;;;27.90;;
75851;SDS011;64500;52.632;20.656;2023-04-25T00:19:24;36.50;;;27.40;;
75851;SDS011;64500;52.632;20.656;2023-04-25T00:21:53;39.40;;;27.70;;
75851;SDS011;64500;52.632;20.656;2023-04-25T00:24:22;36.40;;;27.30;;
75851;SDS011;64500;52.632;20.656;2023-04-25T00:26:50;36.60;;;27.40;;
75851;SDS011;64500;52.632;20.656;2023-04-25T00:29:17;33.40;;;25.80;;
75851;SDS011;64500;52.632;20.656;2023-04-25T00:31:43;35.50;;;27.40;;
75851;SDS011;64500;52.632;20.656;2023-04-25T00:34:11;32.70;;;25.90;;
75851;SDS011;64500;52.632;20.656;2023-04-25T00:36:38;33.40;;;26.40;;
75851;SDS011;64500;52.632;20.656;2023-04-25T00:39:05;34.70;;;26.30;;
75851;SDS011;64500;52.632;20.656;2023-04-25T00:41:33;33.80;;;25.90;;
75851;SDS011;64500;52.632;20.656;2023-04-25T00:44:00;35.70;;;26.40;;
75851;SDS011;64500;52.632;20.656;2023-04-25T00:46:28;35.80;;;26.90;;
75851;SDS011;64500;52.632;20.656;2023-04-25T00:48:56;37.10;;;28.10;;
75851;SDS011;64500;52.632;20.656;2023-04-25T00:51:23;37.20;;;29.30;;
75851;SDS011;64500;52.632;20.656;2023-04-25T00:53:53;39.40;;;28.80;;
75851;SDS011;64500;52.632;20.656;2023-04-25T00:56:21;35.60;;;28.30;;
75851;SDS011;64500;52.632;20.656;2023-04-25T00:58:48;35.20;;;27.20;;
75851;SDS011;64500;52.632;20.656;2023-04-25T01:01:19;37.50;;;28.40;;
75851;SDS011;64500;52.632;20.656;2023-04-25T01:03:46;34.10;;;26.10;;
75851;SDS011;64500;52.632;20.656;2023-04-25T01:06:13;32.50;;;25.20;;
75851;SDS011;64500;52.632;20.656;2023-04-25T01:08:40;32.90;;;26.10;;
75851;SDS011;64500;52.632;20.656;2023-04-25T01:11:07;35.00;;;27.00;;
75851;SDS011;64500;52.632;20.656;2023-04-25T01:13:35;38.20;;;27.90;;
75851;SDS011;64500;52.632;20.656;2023-04-25T01:16:02;39.30;;;27.70;;
75851;SDS011;64500;52.632;20.656;2023-04-25T01:18:29;36.20;;;26.90;;
75851;SDS011;64500;52.632;20.656;2023-04-25T01:23:24;41.50;;;29.40;;
75851;SDS011;64500;52.632;20.656;2023-04-25T01:25:51;46.60;;;31.10;;
75851;SDS011;64500;52.632;20.656;2023-04-25T01:28:19;44.60;;;31.80;;
75851;SDS011;64500;52.632;20.656;2023-04-25T01:30:46;46.80;;;33.20;;
75851;SDS011;64500;52.632;20.656;2023-04-25T01:33:14;48.40;;;33.20;;
75851;SDS011;64500;52.632;20.656;2023-04-25T01:35:42;47.10;;;33.40;;
75851;SDS011;64500;52.632;20.656;2023-04-25T01:38:11;49.30;;;33.00;;
75851;SDS011;64500;52.632;20.656;2023-04-25T01:40:39;46.50;;;33.40;;
75851;SDS011;64500;52.632;20.656;2023-04-25T01:43:07;42.60;;;31.60;;
75851;SDS011;64500;52.632;20.656;2023-04-25T01:45:38;46.00;;;33.00;;
75851;SDS011;64500;52.632;20.656;2023-04-25T01:48:12;48.80;;;33.50;;
75851;SDS011;64500;52.632;20.656;2023-04-25T01:50:40;50.50;;;34.60;;
75851;SDS011;64500;52.632;20.656;2023-04-25T01:53:09;44.80;;;32.70;;
75851;SDS011;64500;52.632;20.656;2023-04-25T01:55:37;46.00;;;33.00;;
75851;SDS011;64500;52.632;20.656;2023-04-25T01:58:04;47.80;;;32.80;;
75851;SDS011;64500;52.632;20.656;2023-04-25T02:00:42;47.50;;;33.10;;
75851;SDS011;64500;52.632;20.656;2023-04-25T02:03:09;48.20;;;31.20;;
75851;SDS011;64500;52.632;20.656;2023-04-25T02:05:37;47.40;;;31.90;;
75851;SDS011;64500;52.632;20.656;2023-04-25T02:08:05;47.30;;;32.50;;
75851;SDS011;64500;52.632;20.656;2023-04-25T02:10:33;45.70;;;31.30;;
75851;SDS011;64500;52.632;20.656;2023-04-25T02:13:01;45.10;;;32.70;;
75851;SDS011;64500;52.632;20.656;2023-04-25T02:15:30;42.30;;;29.90;;
75851;SDS011;64500;52.632;20.656;2023-04-25T02:17:57;45.50;;;32.80;;
75851;SDS011;64500;52.632;20.656;2023-04-25T02:20:24;43.20;;;29.90;;
75851;SDS011;64500;52.632;20.656;2023-04-25T02:22:52;46.80;;;31.30;;
75851;SDS011;64500;52.632;20.656;2023-04-25T02:25:19;42.60;;;29.50;;
75851;SDS011;64500;52.632;20.656;2023-04-25T02:27:47;49.20;;;31.90;;
75851;SDS011;64500;52.632;20.656;2023-04-25T02:30:14;46.80;;;32.30;;
75851;SDS011;64500;52.632;20.656;2023-04-25T02:32:42;51.40;;;32.30;;
75851;SDS011;64500;52.632;20.656;2023-04-25T02:35:09;45.80;;;30.70;;
75851;SDS011;64500;52.632;20.656;2023-04-25T02:37:37;44.40;;;29.60;;
75851;SDS011;64500;52.632;20.656;2023-04-25T02:40:06;46.40;;;29.40;;
75851;SDS011;64500;52.632;20.656;2023-04-25T02:42:34;45.90;;;29.90;;
75851;SDS011;64500;52.632;20.656;2023-04-25T02:45:02;47.00;;;30.30;;
75851;SDS011;64500;52.632;20.656;2023-04-25T02:47:29;44.10;;;29.60;;
75851;SDS011;64500;52.632;20.656;2023-04-25T02:49:57;45.50;;;30.50;;
75851;SDS011;64500;52.632;20.656;2023-04-25T02:52:24;48.20;;;30.50;;
75851;SDS011;64500;52.632;20.656;2023-04-25T02:54:51;45.40;;;30.00;;
75851;SDS011;64500;52.632;20.656;2023-04-25T02:57:18;44.00;;;28.00;;
75851;SDS011;64500;52.632;20.656;2023-04-25T02:59:45;44.60;;;28.90;;
75851;SDS011;64500;52.632;20.656;2023-04-25T03:02:12;50.10;;;30.50;;
75851;SDS011;64500;52.632;20.656;2023-04-25T03:04:39;51.30;;;30.20;;
75851;SDS011;64500;52.632;20.656;2023-04-25T03:07:06;55.90;;;31.80;;
75851;SDS011;64500;52.632;20.656;2023-04-25T03:09:33;51.50;;;31.10;;
75851;SDS011;64500;52.632;20.656;2023-04-25T03:12:01;56.30;;;32.30;;
75851;SDS011;64500;52.632;20.656;2023-04-25T03:14:28;56.90;;;32.20;;
75851;SDS011;64500;52.632;20.656;2023-04-25T03:16:55;55.60;;;31.70;;
75851;SDS011;64500;52.632;20.656;2023-04-25T03:19:22;54.00;;;30.80;;
75851;SDS011;64500;52.632;20.656;2023-04-25T03:21:49;50.00;;;30.30;;
75851;SDS011;64500;52.632;20.656;2023-04-25T03:24:17;52.20;;;31.70;;
75851;SDS011;64500;52.632;20.656;2023-04-25T03:26:44;50.30;;;29.80;;
75851;SDS011;64500;52.632;20.656;2023-04-25T03:29:11;48.80;;;30.00;;
75851;SDS011;64500;52.632;20.656;2023-04-25T03:31:38;46.30;;;28.40;;
75851;SDS011;64500;52.632;20.656;2023-04-25T03:34:05;40.30;;;27.50;;
75851;SDS011;64500;52.632;20.656;2023-04-25T03:36:32;38.20;;;26.50;;
75851;SDS011;64500;52.632;20.656;2023-04-25T03:38:59;38.50;;;26.50;;
75851;SDS011;64500;52.632;20.656;2023-04-25T03:41:26;37.10;;;26.10;;
75851;SDS011;64500;52.632;20.656;2023-04-25T03:43:54;34.60;;;23.30;;
75851;SDS011;64500;52.632;20.656;2023-04-25T03:46:21;33.00;;;23.80;;
75851;SDS011;64500;52.632;20.656;2023-04-25T03:48:49;31.70;;;22.60;;
75851;SDS011;64500;52.632;20.656;2023-04-25T03:51:15;31.90;;;22.80;;
75851;SDS011;64500;52.632;20.656;2023-04-25T03:53:43;25.50;;;18.80;;
75851;SDS011;64500;52.632;20.656;2023-04-25T03:56:10;26.80;;;19.20;;
75851;SDS011;64500;52.632;20.656;2023-04-25T03:58:37;25.10;;;19.60;;
75851;SDS011;64500;52.632;20.656;2023-04-25T04:01:04;24.20;;;18.30;;
75851;SDS011;64500;52.632;20.656;2023-04-25T04:03:34;25.80;;;17.50;;
75851;SDS011;64500;52.632;20.656;2023-04-25T04:06:04;24.00;;;17.60;;
75851;SDS011;64500;52.632;20.656;2023-04-25T04:08:32;23.40;;;18.50;;
75851;SDS011;64500;52.632;20.656;2023-04-25T04:11:00;24.20;;;18.10;;
75851;SDS011;64500;52.632;20.656;2023-04-25T04:13:27;22.10;;;17.10;;
75851;SDS011;64500;52.632;20.656;2023-04-25T04:15:55;23.80;;;16.50;;
75851;SDS011;64500;52.632;20.656;2023-04-25T04:18:22;21.30;;;16.90;;
75851;SDS011;64500;52.632;20.656;2023-04-25T04:20:49;18.50;;;14.50;;
75851;SDS011;64500;52.632;20.656;2023-04-25T04:23:16;20.60;;;15.60;;
75851;SDS011;64500;52.632;20.656;2023-04-25T04:25:43;21.20;;;15.90;;
75851;SDS011;64500;52.632;20.656;2023-04-25T04:28:12;18.40;;;14.60;;
75851;SDS011;64500;52.632;20.656;2023-04-25T04:30:39;20.90;;;15.70;;
75851;SDS011;64500;52.632;20.656;2023-04-25T04:33:08;19.30;;;13.60;;
75851;SDS011;64500;52.632;20.656;2023-04-25T04:35:35;20.50;;;14.90;;
75851;SDS011;64500;52.632;20.656;2023-04-25T04:38:02;18.50;;;14.00;;
75851;SDS011;64500;52.632;20.656;2023-04-25T04:40:29;20.10;;;14.70;;
75851;SDS011;64500;52.632;20.656;2023-04-25T04:42:59;16.80;;;13.20;;
75851;SDS011;64500;52.632;20.656;2023-04-25T04:45:26;20.00;;;15.20;;
75851;SDS011;64500;52.632;20.656;2023-04-25T04:47:54;17.50;;;14.20;;
75851;SDS011;64500;52.632;20.656;2023-04-25T04:50:21;19.70;;;14.90;;
75851;SDS011;64500;52.632;20.656;2023-04-25T04:52:49;16.20;;;13.20;;
75851;SDS011;64500;52.632;20.656;2023-04-25T04:55:16;19.50;;;14.00;;
75851;SDS011;64500;52.632;20.656;2023-04-25T04:57:43;18.40;;;14.90;;
75851;SDS011;64500;52.632;20.656;2023-04-25T05:00:10;19.90;;;14.90;;
75851;SDS011;64500;52.632;20.656;2023-04-25T05:02:38;18.60;;;14.80;;
75851;SDS011;64500;52.632;20.656;2023-04-25T05:05:05;20.90;;;15.40;;
75851;SDS011;64500;52.632;20.656;2023-04-25T05:07:33;17.80;;;14.70;;
75851;SDS011;64500;52.632;20.656;2023-04-25T05:10:01;21.00;;;15.20;;
75851;SDS011;64500;52.632;20.656;2023-04-25T05:12:28;16.80;;;12.60;;
75851;SDS011;64500;52.632;20.656;2023-04-25T05:14:55;19.80;;;15.50;;
75851;SDS011;64500;52.632;20.656;2023-04-25T05:17:22;20.90;;;13.90;;
75851;SDS011;64500;52.632;20.656;2023-04-25T05:19:49;23.90;;;14.50;;
75851;SDS011;64500;52.632;20.656;2023-04-25T05:22:16;20.80;;;16.30;;
75851;SDS011;64500;52.632;20.656;2023-04-25T05:24:43;18.90;;;14.40;;
75851;SDS011;64500;52.632;20.656;2023-04-25T05:27:10;21.70;;;15.60;;
75851;SDS011;64500;52.632;20.656;2023-04-25T05:29:37;16.90;;;13.10;;
75851;SDS011;64500;52.632;20.656;2023-04-25T05:32:04;20.20;;;14.00;;
75851;SDS011;64500;52.632;20.656;2023-04-25T05:34:32;19.20;;;14.10;;
75851;SDS011;64500;52.632;20.656;2023-04-25T05:36:58;18.10;;;13.80;;
75851;SDS011;64500;52.632;20.656;2023-04-25T05:39:25;19.20;;;14.10;;
75851;SDS011;64500;52.632;20.656;2023-04-25T05:41:53;17.00;;;13.90;;
75851;SDS011;64500;52.632;20.656;2023-04-25T05:44:20;19.80;;;13.50;;
75851;SDS011;64500;52.632;20.656;2023-04-25T05:46:47;20.00;;;13.90;;
75851;SDS011;64500;52.632;20.656;2023-04-25T05:49:14;18.30;;;12.80;;
75851;SDS011;64500;52.632;20.656;2023-04-25T05:51:41;16.00;;;12.30;;
75851;SDS011;64500;52.632;20.656;2023-04-25T05:54:08;16.30;;;12.10;;
75851;SDS011;64500;52.632;20.656;2023-04-25T05:56:36;13.80;;;10.80;;
75851;SDS011;64500;52.632;20.656;2023-04-25T05:59:03;14.30;;;9.70;;
75851;SDS011;64500;52.632;20.656;2023-04-25T06:01:30;13.40;;;9.20;;
75851;SDS011;64500;52.632;20.656;2023-04-25T06:03:57;12.60;;;8.40;;
75851;SDS011;64500;52.632;20.656;2023-04-25T06:06:24;13.60;;;8.60;;
75851;SDS011;64500;52.632;20.656;2023-04-25T06:08:53;12.70;;;8.90;;
75851;SDS011;64500;52.632;20.656;2023-04-25T06:11:21;15.40;;;9.70;;
75851;SDS011;64500;52.632;20.656;2023-04-25T06:13:48;12.40;;;8.50;;
75851;SDS011;64500;52.632;20.656;2023-04-25T06:16:15;10.90;;;8.30;;
75851;SDS011;64500;52.632;20.656;2023-04-25T06:18:42;12.40;;;8.40;;
75851;SDS011;64500;52.632;20.656;2023-04-25T06:21:09;12.50;;;8.30;;
75851;SDS011;64500;52.632;20.656;2023-04-25T06:23:36;11.50;;;7.70;;
75851;SDS011;64500;52.632;20.656;2023-04-25T06:26:03;11.60;;;8.50;;
75851;SDS011;64500;52.632;20.656;2023-04-25T06:28:30;12.30;;;8.70;;
75851;SDS011;64500;52.632;20.656;2023-04-25T06:30:57;11.40;;;7.90;;
75851;SDS011;64500;52.632;20.656;2023-04-25T06:33:24;12.50;;;8.30;;
75851;SDS011;64500;52.632;20.656;2023-04-25T06:35:51;11.90;;;8.40;;
75851;SDS011;64500;52.632;20.656;2023-04-25T06:38:19;12.40;;;9.10;;
75851;SDS011;64500;52.632;20.656;2023-04-25T06:40:47;14.00;;;9.30;;
75851;SDS011;64500;52.632;20.656;2023-04-25T06:43:14;16.50;;;9.30;;
75851;SDS011;64500;52.632;20.656;2023-04-25T06:45:41;14.50;;;9.60;;
75851;SDS011;64500;52.632;20.656;2023-04-25T06:48:09;14.40;;;9.60;;
75851;SDS011;64500;52.632;20.656;2023-04-25T06:50:36;12.00;;;8.50;;
75851;SDS011;64500;52.632;20.656;2023-04-25T06:53:05;13.90;;;9.60;;
75851;SDS011;64500;52.632;20.656;2023-04-25T06:55:32;14.60;;;9.30;;
75851;SDS011;64500;52.632;20.656;2023-04-25T06:57:59;12.50;;;9.50;;
75851;SDS011;64500;52.632;20.656;2023-04-25T07:00:26;13.70;;;10.30;;
75851;SDS011;64500;52.632;20.656;2023-04-25T07:02:54;13.30;;;9.60;;
75851;SDS011;64500;52.632;20.656;2023-04-25T07:05:21;13.20;;;9.40;;
75851;SDS011;64500;52.632;20.656;2023-04-25T07:07:48;14.60;;;9.90;;
75851;SDS011;64500;52.632;20.656;2023-04-25T07:10:15;13.60;;;8.60;;
75851;SDS011;64500;52.632;20.656;2023-04-25T07:12:42;12.90;;;9.30;;
75851;SDS011;64500;52.632;20.656;2023-04-25T07:15:09;13.00;;;9.30;;
75851;SDS011;64500;52.632;20.656;2023-04-25T07:17:38;13.00;;;8.70;;
75851;SDS011;64500;52.632;20.656;2023-04-25T07:20:05;12.90;;;9.10;;
75851;SDS011;64500;52.632;20.656;2023-04-25T07:22:35;14.40;;;9.70;;
75851;SDS011;64500;52.632;20.656;2023-04-25T07:25:02;12.30;;;8.90;;
75851;SDS011;64500;52.632;20.656;2023-04-25T07:27:30;14.20;;;9.70;;
75851;SDS011;64500;52.632;20.656;2023-04-25T07:29:58;15.50;;;9.80;;
75851;SDS011;64500;52.632;20.656;2023-04-25T07:32:25;12.50;;;8.60;;
75851;SDS011;64500;52.632;20.656;2023-04-25T07:34:53;12.60;;;8.50;;
75851;SDS011;64500;52.632;20.656;2023-04-25T07:37:20;13.10;;;8.10;;
75851;SDS011;64500;52.632;20.656;2023-04-25T07:39:46;12.50;;;8.30;;
75851;SDS011;64500;52.632;20.656;2023-04-25T07:42:13;13.00;;;8.40;;
75851;SDS011;64500;52.632;20.656;2023-04-25T07:44:41;11.60;;;8.50;;
75851;SDS011;64500;52.632;20.656;2023-04-25T07:47:09;12.50;;;8.00;;
75851;SDS011;64500;52.632;20.656;2023-04-25T07:49:36;12.50;;;8.10;;
75851;SDS011;64500;52.632;20.656;2023-04-25T07:52:04;11.60;;;8.20;;
75851;SDS011;64500;52.632;20.656;2023-04-25T07:54:34;10.80;;;7.80;;
75851;SDS011;64500;52.632;20.656;2023-04-25T07:57:01;13.30;;;8.10;;
75851;SDS011;64500;52.632;20.656;2023-04-25T07:59:28;11.40;;;8.00;;
75851;SDS011;64500;52.632;20.656;2023-04-25T08:01:56;10.70;;;7.90;;
75851;SDS011;64500;52.632;20.656;2023-04-25T08:04:24;11.30;;;7.40;;
75851;SDS011;64500;52.632;20.656;2023-04-25T08:06:52;11.00;;;6.70;;
75851;SDS011;64500;52.632;20.656;2023-04-25T08:09:20;9.60;;;6.80;;
75851;SDS011;64500;52.632;20.656;2023-04-25T08:11:47;11.00;;;7.10;;
75851;SDS011;64500;52.632;20.656;2023-04-25T08:14:15;10.90;;;6.70;;
75851;SDS011;64500;52.632;20.656;2023-04-25T08:16:42;10.40;;;6.70;;
75851;SDS011;64500;52.632;20.656;2023-04-25T08:19:09;10.50;;;6.80;;
75851;SDS011;64500;52.632;20.656;2023-04-25T08:21:37;9.90;;;6.30;;
75851;SDS011;64500;52.632;20.656;2023-04-25T08:24:04;11.00;;;6.80;;
75851;SDS011;64500;52.632;20.656;2023-04-25T08:26:32;10.50;;;7.10;;
75851;SDS011;64500;52.632;20.656;2023-04-25T08:28:59;11.10;;;7.10;;
75851;SDS011;64500;52.632;20.656;2023-04-25T08:31:26;9.70;;;6.70;;
75851;SDS011;64500;52.632;20.656;2023-04-25T08:33:53;9.90;;;6.50;;
75851;SDS011;64500;52.632;20.656;2023-04-25T08:36:20;9.50;;;6.20;;
75851;SDS011;64500;52.632;20.656;2023-04-25T08:38:47;8.50;;;5.30;;
75851;SDS011;64500;52.632;20.656;2023-04-25T08:41:14;9.40;;;5.40;;
75851;SDS011;64500;52.632;20.656;2023-04-25T08:43:42;11.90;;;5.90;;
75851;SDS011;64500;52.632;20.656;2023-04-25T08:46:12;7.70;;;4.80;;
75851;SDS011;64500;52.632;20.656;2023-04-25T08:48:44;10.60;;;5.20;;
75851;SDS011;64500;52.632;20.656;2023-04-25T08:51:33;9.90;;;4.80;;
75851;SDS011;64500;52.632;20.656;2023-04-25T08:54:17;7.00;;;4.00;;
75851;SDS011;64500;52.632;20.656;2023-04-25T08:56:47;7.00;;;4.20;;
75851;SDS011;64500;52.632;20.656;2023-04-25T08:59:14;9.50;;;5.20;;
75851;SDS011;64500;52.632;20.656;2023-04-25T09:01:41;8.80;;;4.50;;
75851;SDS011;64500;52.632;20.656;2023-04-25T09:04:08;7.50;;;4.50;;
75851;SDS011;64500;52.632;20.656;2023-04-25T09:06:35;7.90;;;4.70;;
75851;SDS011;64500;52.632;20.656;2023-04-25T09:09:05;7.10;;;4.40;;
75851;SDS011;64500;52.632;20.656;2023-04-25T09:11:37;8.60;;;5.20;;
75851;SDS011;64500;52.632;20.656;2023-04-25T09:14:38;8.30;;;4.80;;
75851;SDS011;64500;52.632;20.656;2023-04-25T09:19:34;10.60;;;4.80;;
75851;SDS011;64500;52.632;20.656;2023-04-25T09:22:03;9.40;;;5.00;;
75851;SDS011;64500;52.632;20.656;2023-04-25T09:24:43;7.40;;;4.50;;
75851;SDS011;64500;52.632;20.656;2023-04-25T09:27:13;7.40;;;4.50;;
75851;SDS011;64500;52.632;20.656;2023-04-25T09:29:45;6.80;;;4.20;;
75851;SDS011;64500;52.632;20.656;2023-04-25T09:32:22;7.10;;;3.70;;
75851;SDS011;64500;52.632;20.656;2023-04-25T09:34:51;7.50;;;4.20;;
75851;SDS011;64500;52.632;20.656;2023-04-25T09:37:20;7.30;;;4.50;;
75851;SDS011;64500;52.632;20.656;2023-04-25T09:39:57;7.70;;;4.10;;
75851;SDS011;64500;52.632;20.656;2023-04-25T09:42:28;7.10;;;4.30;;
75851;SDS011;64500;52.632;20.656;2023-04-25T09:44:58;8.50;;;5.10;;
75851;SDS011;64500;52.632;20.656;2023-04-25T09:47:28;7.20;;;4.40;;
75851;SDS011;64500;52.632;20.656;2023-04-25T09:49:55;8.80;;;4.90;;
75851;SDS011;64500;52.632;20.656;2023-04-25T09:52:23;7.80;;;4.60;;
75851;SDS011;64500;52.632;20.656;2023-04-25T09:54:51;7.50;;;4.20;;
75851;SDS011;64500;52.632;20.656;2023-04-25T09:57:19;8.60;;;5.30;;
75851;SDS011;64500;52.632;20.656;2023-04-25T10:02:23;8.50;;;4.40;;
75851;SDS011;64500;52.632;20.656;2023-04-25T10:04:52;7.80;;;4.60;;
75851;SDS011;64500;52.632;20.656;2023-04-25T10:07:24;9.50;;;4.50;;
75851;SDS011;64500;52.632;20.656;2023-04-25T10:09:59;7.40;;;4.40;;
75851;SDS011;64500;52.632;20.656;2023-04-25T10:12:32;8.40;;;4.40;;
75851;SDS011;64500;52.632;20.656;2023-04-25T10:14:59;7.90;;;3.90;;
75851;SDS011;64500;52.632;20.656;2023-04-25T10:17:27;10.10;;;4.50;;
75851;SDS011;64500;52.632;20.656;2023-04-25T10:19:54;6.70;;;3.90;;
75851;SDS011;64500;52.632;20.656;2023-04-25T10:22:35;8.00;;;4.30;;
75851;SDS011;64500;52.632;20.656;2023-04-25T10:25:08;6.90;;;4.10;;
75851;SDS011;64500;52.632;20.656;2023-04-25T10:27:38;7.20;;;4.10;;
75851;SDS011;64500;52.632;20.656;2023-04-25T10:30:10;7.60;;;3.40;;
75851;SDS011;64500;52.632;20.656;2023-04-25T10:32:42;7.00;;;3.60;;
75851;SDS011;64500;52.632;20.656;2023-04-25T10:35:19;7.90;;;4.00;;
75851;SDS011;64500;52.632;20.656;2023-04-25T10:37:58;6.70;;;3.70;;
75851;SDS011;64500;52.632;20.656;2023-04-25T10:40:39;7.60;;;3.80;;
75851;SDS011;64500;52.632;20.656;2023-04-25T10:46:01;7.50;;;3.60;;
75851;SDS011;64500;52.632;20.656;2023-04-25T10:48:30;5.80;;;3.40;;
75851;SDS011;64500;52.632;20.656;2023-04-25T10:53:38;5.90;;;3.10;;
75851;SDS011;64500;52.632;20.656;2023-04-25T10:56:12;6.10;;;3.10;;
75851;SDS011;64500;52.632;20.656;2023-04-25T10:58:44;5.80;;;2.90;;
75851;SDS011;64500;52.632;20.656;2023-04-25T11:01:12;7.70;;;3.10;;
75851;SDS011;64500;52.632;20.656;2023-04-25T11:03:41;7.70;;;3.10;;
75851;SDS011;64500;52.632;20.656;2023-04-25T11:06:12;7.20;;;3.60;;
75851;SDS011;64500;52.632;20.656;2023-04-25T11:08:49;7.40;;;3.20;;
75851;SDS011;64500;52.632;20.656;2023-04-25T11:11:17;6.50;;;3.00;;
75851;SDS011;64500;52.632;20.656;2023-04-25T11:13:48;9.40;;;3.70;;
75851;SDS011;64500;52.632;20.656;2023-04-25T11:16:17;7.00;;;3.30;;
75851;SDS011;64500;52.632;20.656;2023-04-25T11:18:44;7.30;;;3.10;;
75851;SDS011;64500;52.632;20.656;2023-04-25T11:21:11;6.30;;;2.70;;
75851;SDS011;64500;52.632;20.656;2023-04-25T11:23:40;6.40;;;2.60;;
75851;SDS011;64500;52.632;20.656;2023-04-25T11:26:07;7.00;;;2.70;;
75851;SDS011;64500;52.632;20.656;2023-04-25T11:28:34;5.60;;;2.70;;
75851;SDS011;64500;52.632;20.656;2023-04-25T11:31:02;6.30;;;2.90;;
75851;SDS011;64500;52.632;20.656;2023-04-25T11:33:29;6.40;;;2.90;;
75851;SDS011;64500;52.632;20.656;2023-04-25T11:35:56;6.10;;;2.40;;
75851;SDS011;64500;52.632;20.656;2023-04-25T11:38:24;6.80;;;2.90;;
75851;SDS011;64500;52.632;20.656;2023-04-25T11:40:52;6.00;;;2.80;;
75851;SDS011;64500;52.632;20.656;2023-04-25T11:43:20;6.40;;;2.70;;
75851;SDS011;64500;52.632;20.656;2023-04-25T11:45:49;6.00;;;2.70;;
75851;SDS011;64500;52.632;20.656;2023-04-25T11:48:17;5.80;;;2.70;;
75851;SDS011;64500;52.632;20.656;2023-04-25T11:50:45;9.90;;;3.30;;
75851;SDS011;64500;52.632;20.656;2023-04-25T11:53:12;7.80;;;3.00;;
75851;SDS011;64500;52.632;20.656;2023-04-25T11:55:39;6.70;;;3.00;;
75851;SDS011;64500;52.632;20.656;2023-04-25T11:58:06;6.70;;;2.80;;
75851;SDS011;64500;52.632;20.656;2023-04-25T12:00:35;6.60;;;3.00;;
75851;SDS011;64500;52.632;20.656;2023-04-25T12:03:02;6.30;;;2.90;;
75851;SDS011;64500;52.632;20.656;2023-04-25T12:05:30;6.50;;;3.00;;
75851;SDS011;64500;52.632;20.656;2023-04-25T12:08:15;8.20;;;3.00;;
75851;SDS011;64500;52.632;20.656;2023-04-25T12:10:43;6.10;;;3.10;;
75851;SDS011;64500;52.632;20.656;2023-04-25T12:13:19;5.50;;;2.90;;
75851;SDS011;64500;52.632;20.656;2023-04-25T12:15:54;6.10;;;2.90;;
75851;SDS011;64500;52.632;20.656;2023-04-25T12:18:23;8.20;;;3.30;;
75851;SDS011;64500;52.632;20.656;2023-04-25T12:20:54;8.00;;;3.40;;
75851;SDS011;64500;52.632;20.656;2023-04-25T12:23:25;7.50;;;3.00;;
75851;SDS011;64500;52.632;20.656;2023-04-25T12:25:53;8.50;;;3.50;;
75851;SDS011;64500;52.632;20.656;2023-04-25T12:28:21;6.70;;;3.10;;
75851;SDS011;64500;52.632;20.656;2023-04-25T12:30:58;7.00;;;3.50;;
75851;SDS011;64500;52.632;20.656;2023-04-25T12:33:30;6.50;;;3.30;;
75851;SDS011;64500;52.632;20.656;2023-04-25T12:35:58;6.90;;;3.20;;
75851;SDS011;64500;52.632;20.656;2023-04-25T12:38:27;5.90;;;3.20;;
75851;SDS011;64500;52.632;20.656;2023-04-25T12:41:00;7.00;;;3.00;;
75851;SDS011;64500;52.632;20.656;2023-04-25T12:43:27;6.80;;;3.30;;
75851;SDS011;64500;52.632;20.656;2023-04-25T12:45:55;6.90;;;3.20;;
75851;SDS011;64500;52.632;20.656;2023-04-25T12:48:22;5.50;;;2.40;;
75851;SDS011;64500;52.632;20.656;2023-04-25T12:50:50;5.10;;;2.60;;
75851;SDS011;64500;52.632;20.656;2023-04-25T12:53:19;5.60;;;2.50;;
75851;SDS011;64500;52.632;20.656;2023-04-25T12:55:47;6.80;;;2.60;;
75851;SDS011;64500;52.632;20.656;2023-04-25T12:58:15;5.50;;;2.60;;
75851;SDS011;64500;52.632;20.656;2023-04-25T13:00:44;6.20;;;2.80;;
75851;SDS011;64500;52.632;20.656;2023-04-25T13:03:12;6.20;;;2.80;;
75851;SDS011;64500;52.632;20.656;2023-04-25T13:05:39;6.10;;;2.80;;
75851;SDS011;64500;52.632;20.656;2023-04-25T13:08:06;6.80;;;3.00;;
75851;SDS011;64500;52.632;20.656;2023-04-25T13:10:33;6.20;;;2.50;;
75851;SDS011;64500;52.632;20.656;2023-04-25T13:13:00;5.50;;;2.50;;
75851;SDS011;64500;52.632;20.656;2023-04-25T13:15:28;6.60;;;3.30;;
75851;SDS011;64500;52.632;20.656;2023-04-25T13:17:55;7.50;;;2.80;;
75851;SDS011;64500;52.632;20.656;2023-04-25T13:20:22;8.30;;;2.80;;
75851;SDS011;64500;52.632;20.656;2023-04-25T13:22:49;5.70;;;2.60;;
75851;SDS011;64500;52.632;20.656;2023-04-25T13:25:16;6.40;;;2.80;;
75851;SDS011;64500;52.632;20.656;2023-04-25T13:27:44;5.50;;;2.40;;
75851;SDS011;64500;52.632;20.656;2023-04-25T13:30:11;5.40;;;2.60;;
75851;SDS011;64500;52.632;20.656;2023-04-25T13:32:38;5.70;;;2.80;;
75851;SDS011;64500;52.632;20.656;2023-04-25T13:35:09;6.60;;;3.60;;
75851;SDS011;64500;52.632;20.656;2023-04-25T13:37:38;7.40;;;2.90;;
75851;SDS011;64500;52.632;20.656;2023-04-25T13:40:07;6.20;;;2.80;;
75851;SDS011;64500;52.632;20.656;2023-04-25T13:42:36;5.40;;;2.80;;
75851;SDS011;64500;52.632;20.656;2023-04-25T13:45:04;5.70;;;2.60;;
75851;SDS011;64500;52.632;20.656;2023-04-25T13:47:32;5.10;;;2.60;;
75851;SDS011;64500;52.632;20.656;2023-04-25T13:49:59;6.40;;;2.70;;
75851;SDS011;64500;52.632;20.656;2023-04-25T13:52:29;5.10;;;2.30;;
75851;SDS011;64500;52.632;20.656;2023-04-25T13:54:56;5.70;;;2.70;;
75851;SDS011;64500;52.632;20.656;2023-04-25T13:57:23;6.80;;;2.60;;
75851;SDS011;64500;52.632;20.656;2023-04-25T13:59:50;7.20;;;2.90;;
75851;SDS011;64500;52.632;20.656;2023-04-25T14:02:18;6.30;;;2.90;;
75851;SDS011;64500;52.632;20.656;2023-04-25T14:04:45;7.80;;;3.10;;
75851;SDS011;64500;52.632;20.656;2023-04-25T14:07:13;6.10;;;3.00;;
75851;SDS011;64500;52.632;20.656;2023-04-25T14:09:42;7.60;;;3.50;;
75851;SDS011;64500;52.632;20.656;2023-04-25T14:12:09;6.60;;;2.80;;
75851;SDS011;64500;52.632;20.656;2023-04-25T14:14:37;6.50;;;3.30;;
75851;SDS011;64500;52.632;20.656;2023-04-25T14:17:04;7.00;;;3.20;;
75851;SDS011;64500;52.632;20.656;2023-04-25T14:19:33;6.10;;;3.00;;
75851;SDS011;64500;52.632;20.656;2023-04-25T14:22:00;6.40;;;3.00;;
75851;SDS011;64500;52.632;20.656;2023-04-25T14:24:27;6.30;;;2.70;;
75851;SDS011;64500;52.632;20.656;2023-04-25T14:26:54;7.00;;;3.30;;
75851;SDS011;64500;52.632;20.656;2023-04-25T14:29:22;6.00;;;2.60;;
75851;SDS011;64500;52.632;20.656;2023-04-25T14:31:49;6.70;;;3.10;;
75851;SDS011;64500;52.632;20.656;2023-04-25T14:34:16;8.10;;;3.00;;
75851;SDS011;64500;52.632;20.656;2023-04-25T14:36:42;6.40;;;2.90;;
75851;SDS011;64500;52.632;20.656;2023-04-25T14:39:09;8.30;;;3.50;;
75851;SDS011;64500;52.632;20.656;2023-04-25T14:41:37;7.10;;;3.30;;